• Join FlightAware (Why Join?)
  • Login
  • US Flag 
12:57AM EDT


 

Airport Tracker/Info


-or-


 

Live Flight TrackerFlight Track Log ✈ KAP280 ✈ 16-Jun-2013 ✈ KSTL - KIRK

Flight Track Log - Related Links

Times and Time Zones

All times are in EDT time to prevent confusion due to time zone crossing. See the KAP280 flight status page for this flight to view local times or setup timezone preferences in your user account.

Time Position Orientation Groundspeed Altitude Reporting Facility
EDT Latitude Longitude Course Direction KTS MPH feet Rate Location/Type
08:05PM 39.2353 -91.1425 311° West 149 171 6,000  Level Kansas City Center
08:06PM 39.2669 -91.1900 311° West 147 169 6,000  Level Kansas City Center
08:07PM 39.2931 -91.2325 308° West 150 173 6,000  Level Kansas City Center
08:08PM 39.3189 -91.2739 309° West 148 170 6,000  Level Kansas City Center
08:09PM 39.3447 -91.3161 308° West 149 171 6,000  Level Kansas City Center
08:10PM 39.3711 -91.3581 309° West 151 174 6,000  Level Kansas City Center
08:11PM 39.3978 -91.4022 308° West 154 177 6,000  Level Kansas City Center
08:12PM 39.4292 -91.4528 309° West 152 175 6,000  Level Kansas City Center
08:13PM 39.4550 -91.4953 308° West 151 174 6,000  Level Kansas City Center
08:14PM 39.4814 -91.5372 309° West 151 174 6,000  Level Kansas City Center
08:15PM 39.5092 -91.5817 309° West 151 174 6,000  Level Kansas City Center
08:16PM 39.5342 -91.6233 308° West 149 171 6,000  Level Kansas City Center
08:18PM 39.5606 -91.6658 309° West 151 174 6,000  Level Kansas City Center
08:19PM 39.5878 -91.7078 310° West 154 177 6,000  Level Kansas City Center
08:20PM 39.6200 -91.7608 308° West 156 180 6,000  Level Kansas City Center
08:21PM 39.6464 -91.8039 309° West 155 178 6,000  Level Kansas City Center
08:22PM 39.6731 -91.8503 307° West 158 182 6,000 -120 Level Kansas City Center
08:23PM 39.7003 -91.8939 309° West 158 182 5,800 -360 Descending Kansas City Center
08:24PM 39.7303 -91.9431 308° West 165 190 5,300 -540 Descending Kansas City Center
08:25PM 39.7619 -91.9933 309° West 177 204 4,800 -600 Descending Kansas City Center
08:26PM 39.7986 -92.0544 308° West 180 207 4,100 -420 Descending Kansas City Center
08:27PM 39.8286 -92.1042 308° West 179 206 4,000 -60 Descending Kansas City Center
08:28PM 39.8567 -92.1511 308° West 172 198 4,000  Level Kansas City Center
08:29PM 39.8842 -92.1964 308° West 166 191 4,000  Level Kansas City Center
08:30PM 39.9106 -92.2408 308° West 161 185 4,000  Level Kansas City Center